createdAt,value
2023-04-09T00:01:05.055Z,3.51
2023-04-09T00:03:51.795Z,3.41
2023-04-09T00:06:38.252Z,3.04
2023-04-09T00:09:24.647Z,3.28
2023-04-09T00:12:11.512Z,2.81
2023-04-09T00:14:57.897Z,2.90
2023-04-09T00:17:44.185Z,2.87
2023-04-09T00:20:30.638Z,2.98
2023-04-09T00:23:16.930Z,2.92
2023-04-09T00:26:03.388Z,3.07
2023-04-09T00:28:49.913Z,2.83
2023-04-09T00:31:36.283Z,3.05
2023-04-09T00:34:22.779Z,2.61
2023-04-09T00:37:09.287Z,2.51
2023-04-09T00:39:56.030Z,2.34
2023-04-09T00:42:42.545Z,2.42
2023-04-09T00:45:28.773Z,2.33
2023-04-09T00:48:17.046Z,2.32
2023-04-09T00:51:03.628Z,2.46
2023-04-09T00:53:50.769Z,2.35
2023-04-09T00:56:38.176Z,2.23
2023-04-09T00:59:25.859Z,2.17
2023-04-09T01:02:12.568Z,2.35
2023-04-09T01:04:59.690Z,2.52
2023-04-09T01:08:08.746Z,2.46
2023-04-09T01:11:11.033Z,2.31
2023-04-09T01:14:32.895Z,2.09
2023-04-09T01:17:31.104Z,1.78
2023-04-09T01:20:21.646Z,1.96
2023-04-09T01:23:18.882Z,1.92
2023-04-09T01:26:17.174Z,1.97
2023-04-09T01:29:09.498Z,1.83
2023-04-09T01:31:56.142Z,1.83
2023-04-09T01:34:44.941Z,2.09
2023-04-09T01:37:32.511Z,2.09
2023-04-09T01:40:19.148Z,2.41
2023-04-09T01:43:06.865Z,2.30
2023-04-09T01:45:54.304Z,2.23
2023-04-09T01:48:41.016Z,2.71
2023-04-09T01:51:27.934Z,2.47
2023-04-09T01:54:16.071Z,2.51
2023-04-09T01:57:02.337Z,2.66
2023-04-09T01:59:48.722Z,2.72
2023-04-09T02:02:49.306Z,2.49
2023-04-09T02:05:39.815Z,2.91
2023-04-09T02:08:28.357Z,2.69
2023-04-09T02:11:16.283Z,2.51
2023-04-09T02:14:04.345Z,2.50
2023-04-09T02:16:51.104Z,2.47
2023-04-09T02:19:41.178Z,2.52
2023-04-09T02:22:27.516Z,2.74
2023-04-09T02:25:14.090Z,2.64
2023-04-09T02:28:00.650Z,2.52
2023-04-09T02:30:46.830Z,2.34
2023-04-09T02:33:33.413Z,2.23
2023-04-09T02:36:19.866Z,2.24
2023-04-09T02:39:06.409Z,2.18
2023-04-09T02:41:52.848Z,2.24
2023-04-09T02:44:39.103Z,2.23
2023-04-09T02:47:27.168Z,2.51
2023-04-09T02:50:13.789Z,2.47
2023-04-09T02:53:06.685Z,2.46
2023-04-09T02:55:52.819Z,2.71
2023-04-09T02:58:38.978Z,2.58
2023-04-09T03:01:25.428Z,2.71
2023-04-09T03:04:11.788Z,2.66
2023-04-09T03:06:58.098Z,2.67
2023-04-09T03:09:44.358Z,2.69
2023-04-09T03:12:30.530Z,2.94
2023-04-09T03:15:17.162Z,2.47
2023-04-09T03:18:03.453Z,2.82
2023-04-09T03:20:50.453Z,2.99
2023-04-09T03:23:37.208Z,2.91
2023-04-09T03:26:25.340Z,2.78
2023-04-09T03:29:11.778Z,2.90
2023-04-09T03:31:58.552Z,2.77
2023-04-09T03:34:44.970Z,2.57
2023-04-09T03:37:31.472Z,2.78
2023-04-09T03:40:17.990Z,2.52
2023-04-09T03:43:04.546Z,2.71
2023-04-09T03:45:54.592Z,2.62
2023-04-09T03:48:46.189Z,2.25
2023-04-09T03:51:33.081Z,2.43
2023-04-09T03:54:20.756Z,2.31
2023-04-09T03:57:07.295Z,2.36
2023-04-09T03:59:57.580Z,2.49
2023-04-09T04:02:46.243Z,2.36
2023-04-09T04:05:32.898Z,2.58
2023-04-09T04:08:22.661Z,2.57
2023-04-09T04:11:09.020Z,2.82
2023-04-09T04:13:56.132Z,2.82
2023-04-09T04:16:44.133Z,2.83
2023-04-09T04:19:33.337Z,2.81
2023-04-09T04:22:19.953Z,2.96
2023-04-09T04:25:10.770Z,3.02
2023-04-09T04:27:57.919Z,2.98
2023-04-09T04:30:51.537Z,2.81
2023-04-09T04:33:40.550Z,3.08
2023-04-09T04:36:31.036Z,3.00
2023-04-09T04:39:17.155Z,2.93
2023-04-09T04:42:12.328Z,2.95
2023-04-09T04:44:59.598Z,3.10
2023-04-09T04:47:55.842Z,3.10
2023-04-09T04:50:41.964Z,3.09
2023-04-09T04:53:29.347Z,2.98
2023-04-09T04:56:18.613Z,3.02
2023-04-09T04:59:22.867Z,2.95
2023-04-09T05:02:19.401Z,2.72
2023-04-09T05:05:17.655Z,2.92
2023-04-09T05:08:09.985Z,2.93
2023-04-09T05:10:57.267Z,2.79
2023-04-09T05:13:51.604Z,2.64
2023-04-09T05:16:39.518Z,2.67
2023-04-09T05:19:27.149Z,2.60
2023-04-09T05:22:19.792Z,2.71
2023-04-09T05:25:07.260Z,2.82
2023-04-09T05:27:57.620Z,2.83
2023-04-09T05:30:48.167Z,2.90
2023-04-09T05:33:38.368Z,3.04
2023-04-09T05:36:32.272Z,3.00
2023-04-09T05:39:19.538Z,3.08
2023-04-09T05:42:06.240Z,3.10
2023-04-09T05:45:17.954Z,3.35
2023-04-09T05:48:09.803Z,3.23
2023-04-09T05:50:59.698Z,3.16
2023-04-09T05:53:48.216Z,3.42
2023-04-09T05:56:34.435Z,3.85
2023-04-09T05:59:20.912Z,3.80
2023-04-09T06:02:07.247Z,4.06
2023-04-09T06:04:53.640Z,4.24
2023-04-09T06:07:40.795Z,4.00
2023-04-09T06:10:27.293Z,4.27
2023-04-09T06:13:13.860Z,4.41
2023-04-09T06:16:04.275Z,4.41
2023-04-09T06:18:54.902Z,4.27
2023-04-09T06:21:41.327Z,4.42
2023-04-09T06:24:27.659Z,4.86
2023-04-09T06:27:14.219Z,4.78
2023-04-09T06:30:01.030Z,5.16
2023-04-09T06:32:54.256Z,5.50
2023-04-09T06:35:42.370Z,5.64
2023-04-09T06:38:28.705Z,5.89
2023-04-09T06:41:15.436Z,6.34
2023-04-09T06:44:01.770Z,6.58
2023-04-09T06:46:48.070Z,6.88
2023-04-09T06:49:34.812Z,6.79
2023-04-09T06:52:21.111Z,7.10
2023-04-09T06:55:07.853Z,7.07
2023-04-09T06:57:54.374Z,6.90
2023-04-09T07:00:41.047Z,7.00
2023-04-09T07:03:27.857Z,7.36
2023-04-09T07:06:14.851Z,7.49
2023-04-09T07:09:01.364Z,7.71
2023-04-09T07:11:47.785Z,7.78
2023-04-09T07:14:34.200Z,7.53
2023-04-09T07:17:20.529Z,7.63
2023-04-09T07:20:07.240Z,7.48
2023-04-09T07:22:53.688Z,7.64
2023-04-09T07:25:40.632Z,7.44
2023-04-09T07:28:27.128Z,7.59
2023-04-09T07:31:14.300Z,7.62
2023-04-09T07:34:00.905Z,7.56
2023-04-09T07:36:47.425Z,7.83
2023-04-09T07:39:34.029Z,7.86
2023-04-09T07:42:20.756Z,7.82
2023-04-09T07:45:07.948Z,7.94
2023-04-09T07:47:54.804Z,8.18
2023-04-09T07:50:41.256Z,8.26
2023-04-09T07:53:27.624Z,8.25
2023-04-09T07:56:14.078Z,8.56
2023-04-09T07:59:00.205Z,8.53
2023-04-09T08:01:46.984Z,8.71
2023-04-09T08:04:33.771Z,8.66
2023-04-09T08:07:20.246Z,8.62
2023-04-09T08:10:07.095Z,8.66
2023-04-09T08:12:53.576Z,8.74
2023-04-09T08:15:39.785Z,8.39
2023-04-09T08:18:25.906Z,8.73
2023-04-09T08:21:12.765Z,9.05
2023-04-09T08:24:04.344Z,9.11
2023-04-09T08:26:51.113Z,9.35
2023-04-09T08:29:38.639Z,9.65
2023-04-09T08:32:24.931Z,10.07
2023-04-09T08:35:11.424Z,10.28
2023-04-09T08:37:57.930Z,10.55
2023-04-09T08:40:44.028Z,10.27
2023-04-09T08:43:47.315Z,10.24
2023-04-09T08:46:39.069Z,9.96
2023-04-09T08:49:25.547Z,10.45
2023-04-09T08:52:12.199Z,10.77
2023-04-09T08:54:58.475Z,10.84
2023-04-09T08:57:44.717Z,10.33
2023-04-09T09:00:31.030Z,10.49
2023-04-09T09:03:17.596Z,10.55
2023-04-09T09:06:04.324Z,10.35
2023-04-09T09:09:00.722Z,10.30
2023-04-09T09:11:50.067Z,10.52
2023-04-09T09:14:36.401Z,10.62
2023-04-09T09:17:22.555Z,10.78
2023-04-09T09:20:22.260Z,10.87
2023-04-09T09:23:08.885Z,11.03
2023-04-09T09:25:55.438Z,10.96
2023-04-09T09:28:42.688Z,10.88
2023-04-09T09:31:28.890Z,11.06
2023-04-09T09:34:20.249Z,11.42
2023-04-09T09:37:27.019Z,11.37
2023-04-09T09:40:27.840Z,11.63
2023-04-09T09:43:14.681Z,12.08
2023-04-09T09:46:02.368Z,12.66
2023-04-09T09:48:49.694Z,12.33
2023-04-09T09:51:39.295Z,12.44
2023-04-09T09:54:27.365Z,12.73
2023-04-09T09:57:17.897Z,12.68
2023-04-09T10:00:05.780Z,12.75
2023-04-09T10:03:12.101Z,12.69
2023-04-09T10:06:01.355Z,12.66
2023-04-09T10:08:49.401Z,12.62
2023-04-09T10:11:37.838Z,12.71
2023-04-09T10:14:26.038Z,12.58
2023-04-09T10:17:12.459Z,13.01
2023-04-09T10:20:12.771Z,13.36
2023-04-09T10:23:06.349Z,12.91
2023-04-09T10:25:53.706Z,13.15
2023-04-09T10:28:40.835Z,13.15
2023-04-09T10:31:27.342Z,13.59
2023-04-09T10:34:18.922Z,13.65
2023-04-09T10:37:09.598Z,14.09
2023-04-09T10:39:57.938Z,13.97
2023-04-09T10:42:46.815Z,13.66
2023-04-09T10:45:41.637Z,13.61
2023-04-09T10:48:33.049Z,14.09
2023-04-09T10:51:19.596Z,14.16
2023-04-09T10:54:06.762Z,13.09
2023-04-09T10:57:08.106Z,13.13
2023-04-09T10:59:55.519Z,13.36
2023-04-09T11:02:59.555Z,13.86
2023-04-09T11:05:51.135Z,14.16
2023-04-09T11:08:38.591Z,14.02
2023-04-09T11:11:28.250Z,14.43
2023-04-09T11:14:20.393Z,14.90
2023-04-09T11:17:07.052Z,14.83
2023-04-09T11:19:53.507Z,14.37
2023-04-09T11:22:39.811Z,14.01
2023-04-09T11:25:31.315Z,13.59
2023-04-09T11:28:18.643Z,14.04
2023-04-09T11:31:05.845Z,14.35
2023-04-09T11:33:52.194Z,14.49
2023-04-09T11:36:38.450Z,14.89
2023-04-09T11:39:26.359Z,14.27
2023-04-09T11:42:16.083Z,14.26
2023-04-09T11:45:03.481Z,13.94
2023-04-09T11:47:49.986Z,13.74
2023-04-09T11:50:37.480Z,13.33
2023-04-09T11:53:24.476Z,13.27
2023-04-09T11:56:11.270Z,13.45
2023-04-09T11:58:57.906Z,12.85
2023-04-09T12:01:49.828Z,12.54
2023-04-09T12:04:36.314Z,13.10
2023-04-09T12:07:22.934Z,13.19
2023-04-09T12:10:10.446Z,13.67
2023-04-09T12:13:10.194Z,13.71
2023-04-09T12:15:58.069Z,14.02
2023-04-09T12:18:47.573Z,14.29
2023-04-09T12:21:52.963Z,14.65
2023-04-09T12:24:39.159Z,14.32
2023-04-09T12:27:25.980Z,15.08
2023-04-09T12:30:12.393Z,15.08
2023-04-09T12:32:59.286Z,14.85
2023-04-09T12:35:46.227Z,14.57
2023-04-09T12:38:32.815Z,14.11
2023-04-09T12:41:19.425Z,14.07
2023-04-09T12:44:07.256Z,13.59
2023-04-09T12:46:53.634Z,14.05
2023-04-09T12:49:42.211Z,13.93
2023-04-09T12:52:28.868Z,14.21
2023-04-09T12:55:15.631Z,14.18
2023-04-09T12:58:02.511Z,14.12
2023-04-09T13:00:49.674Z,14.18
2023-04-09T13:03:36.218Z,14.19
2023-04-09T13:06:22.927Z,14.92
2023-04-09T13:09:09.145Z,14.93
2023-04-09T13:11:56.041Z,15.75
2023-04-09T13:14:44.984Z,15.87
2023-04-09T13:17:31.583Z,15.76
2023-04-09T13:20:18.109Z,15.63
2023-04-09T13:23:04.515Z,15.35
2023-04-09T13:25:50.928Z,15.39
2023-04-09T13:28:37.069Z,15.70
2023-04-09T13:31:23.503Z,16.13
2023-04-09T13:34:10.011Z,16.10
2023-04-09T13:36:56.700Z,15.76
2023-04-09T13:39:44.718Z,16.21
2023-04-09T13:42:31.434Z,16.16
2023-04-09T13:45:20.267Z,16.47
2023-04-09T13:48:07.348Z,16.60
2023-04-09T13:50:53.764Z,15.92
2023-04-09T13:53:39.979Z,15.86
2023-04-09T13:56:27.387Z,16.17
2023-04-09T13:59:13.667Z,16.56
2023-04-09T14:02:00.440Z,15.86
2023-04-09T14:04:47.096Z,16.03
2023-04-09T14:07:33.446Z,16.41
2023-04-09T14:10:19.677Z,16.77
2023-04-09T14:13:07.362Z,16.88
2023-04-09T14:15:53.802Z,17.04
2023-04-09T14:18:40.232Z,16.43
2023-04-09T14:21:26.932Z,15.88
2023-04-09T14:24:13.671Z,15.14
2023-04-09T14:27:00.047Z,14.83
2023-04-09T14:29:46.334Z,14.97
2023-04-09T14:32:32.628Z,14.79
2023-04-09T14:35:18.885Z,14.87
2023-04-09T14:38:05.124Z,15.08
2023-04-09T14:40:51.563Z,15.49
2023-04-09T14:43:38.070Z,15.75
2023-04-09T14:46:24.479Z,15.57
2023-04-09T14:49:11.064Z,15.73
2023-04-09T14:51:58.392Z,15.52
2023-04-09T14:54:45.526Z,15.41
2023-04-09T14:57:32.819Z,15.32
2023-04-09T15:00:19.650Z,15.13
2023-04-09T15:03:06.908Z,15.06
2023-04-09T15:05:53.381Z,15.15
2023-04-09T15:08:39.529Z,15.39
2023-04-09T15:11:27.825Z,15.63
2023-04-09T15:14:14.317Z,15.93
2023-04-09T15:17:00.724Z,15.57
2023-04-09T15:19:47.111Z,15.76
2023-04-09T15:22:33.555Z,15.05
2023-04-09T15:25:20.017Z,14.88
2023-04-09T15:28:06.784Z,15.28
2023-04-09T15:30:54.882Z,15.05
2023-04-09T15:33:45.445Z,14.99
2023-04-09T15:36:32.388Z,14.84
2023-04-09T15:39:19.110Z,14.43
2023-04-09T15:42:07.953Z,14.50
2023-04-09T15:44:56.177Z,14.19
2023-04-09T15:47:44.390Z,14.00
2023-04-09T15:50:31.063Z,13.92
2023-04-09T15:53:17.318Z,13.94
2023-04-09T15:56:04.190Z,13.81
2023-04-09T15:58:51.113Z,13.86
2023-04-09T16:01:38.091Z,14.07
2023-04-09T16:04:24.471Z,14.25
2023-04-09T16:07:11.025Z,14.21
2023-04-09T16:09:57.768Z,14.10
2023-04-09T16:12:43.929Z,14.32
2023-04-09T16:15:31.018Z,14.24
2023-04-09T16:18:18.340Z,14.42
2023-04-09T16:21:05.708Z,14.09
2023-04-09T16:23:52.199Z,14.21
2023-04-09T16:26:46.032Z,14.02
2023-04-09T16:29:32.256Z,13.72
2023-04-09T16:32:18.624Z,14.04
2023-04-09T16:35:05.454Z,13.77
2023-04-09T16:37:52.313Z,13.86
2023-04-09T16:40:39.955Z,13.76
2023-04-09T16:43:26.108Z,13.70
2023-04-09T16:46:12.322Z,13.80
2023-04-09T16:48:58.568Z,13.46
2023-04-09T16:51:46.025Z,13.71
2023-04-09T16:54:32.297Z,13.42
2023-04-09T16:57:18.411Z,13.70
2023-04-09T17:00:06.444Z,13.58
2023-04-09T17:02:53.204Z,13.54
2023-04-09T17:05:40.043Z,13.42
2023-04-09T17:08:26.425Z,12.97
2023-04-09T17:11:17.047Z,13.01
2023-04-09T17:14:03.356Z,12.80
2023-04-09T17:16:52.819Z,12.88
2023-04-09T17:19:39.939Z,12.81
2023-04-09T17:22:27.715Z,12.80
2023-04-09T17:25:14.123Z,12.42
2023-04-09T17:28:01.569Z,12.38
2023-04-09T17:30:48.312Z,12.29
2023-04-09T17:33:34.689Z,12.03
2023-04-09T17:36:21.347Z,11.99
2023-04-09T17:39:07.806Z,11.60
2023-04-09T17:41:56.419Z,11.55
2023-04-09T17:44:43.760Z,11.37
2023-04-09T17:47:30.139Z,11.09
2023-04-09T17:50:16.904Z,11.12
2023-04-09T17:53:03.056Z,10.86
2023-04-09T17:55:50.874Z,10.49
2023-04-09T17:58:37.004Z,10.33
2023-04-09T18:01:23.571Z,10.10
2023-04-09T18:04:11.256Z,9.92
2023-04-09T18:06:58.161Z,9.79
2023-04-09T18:09:52.313Z,9.30
2023-04-09T18:12:39.153Z,9.33
2023-04-09T18:15:27.174Z,9.11
2023-04-09T18:18:14.207Z,9.14
2023-04-09T18:21:00.545Z,9.00
2023-04-09T18:23:47.761Z,8.83
2023-04-09T18:26:34.112Z,8.40
2023-04-09T18:29:21.074Z,8.52
2023-04-09T18:32:07.957Z,8.40
2023-04-09T18:34:56.230Z,8.33
2023-04-09T18:37:43.821Z,8.11
2023-04-09T18:40:30.904Z,8.08
2023-04-09T18:43:17.366Z,7.96
2023-04-09T18:46:04.247Z,7.92
2023-04-09T18:48:51.586Z,7.80
2023-04-09T18:51:38.301Z,7.66
2023-04-09T18:54:25.579Z,7.69
2023-04-09T18:57:12.250Z,7.59
2023-04-09T18:59:58.625Z,7.36
2023-04-09T19:02:44.972Z,7.59
2023-04-09T19:05:32.899Z,7.58
2023-04-09T19:08:19.132Z,7.30
2023-04-09T19:11:06.430Z,7.10
2023-04-09T19:13:53.149Z,7.26
2023-04-09T19:16:40.018Z,7.18
2023-04-09T19:19:27.453Z,7.04
2023-04-09T19:22:13.874Z,6.67
2023-04-09T19:25:00.453Z,6.60
2023-04-09T19:27:46.826Z,6.77
2023-04-09T19:30:33.073Z,6.69
2023-04-09T19:33:24.331Z,6.46
2023-04-09T19:36:12.397Z,6.40
2023-04-09T19:38:59.763Z,6.33
2023-04-09T19:41:46.212Z,6.25
2023-04-09T19:44:32.454Z,6.21
2023-04-09T19:47:18.677Z,6.16
2023-04-09T19:50:05.361Z,6.02
2023-04-09T19:52:55.789Z,6.09
2023-04-09T19:55:42.392Z,6.28
2023-04-09T19:58:28.868Z,6.47
2023-04-09T20:01:16.894Z,6.38
2023-04-09T20:04:03.983Z,6.27
2023-04-09T20:06:51.845Z,6.12
2023-04-09T20:09:41.364Z,6.11
2023-04-09T20:12:29.645Z,6.10
2023-04-09T20:15:22.523Z,6.28
2023-04-09T20:18:09.077Z,6.09
2023-04-09T20:20:55.673Z,5.91
2023-04-09T20:23:41.943Z,5.84
2023-04-09T20:26:28.610Z,5.67
2023-04-09T20:29:15.144Z,5.85
2023-04-09T20:32:03.173Z,5.77
2023-04-09T20:34:49.645Z,5.67
2023-04-09T20:37:36.053Z,5.33
2023-04-09T20:40:22.509Z,5.48
2023-04-09T20:43:08.888Z,5.57
2023-04-09T20:45:55.388Z,5.37
2023-04-09T20:48:41.867Z,5.05
2023-04-09T20:51:28.454Z,5.21
2023-04-09T20:54:17.870Z,5.16
2023-04-09T20:57:05.587Z,4.97
2023-04-09T20:59:53.663Z,4.99
2023-04-09T21:02:40.936Z,4.98
2023-04-09T21:05:27.526Z,4.85
2023-04-09T21:08:15.398Z,4.68
2023-04-09T21:11:02.485Z,4.79
2023-04-09T21:13:54.694Z,4.56
2023-04-09T21:16:42.000Z,4.62
2023-04-09T21:19:28.172Z,4.51
2023-04-09T21:22:14.825Z,4.40
2023-04-09T21:25:02.970Z,4.37
2023-04-09T21:27:49.319Z,4.14
2023-04-09T21:30:37.490Z,4.19
2023-04-09T21:33:23.901Z,4.08
2023-04-09T21:36:10.379Z,3.90
2023-04-09T21:38:57.510Z,3.89
2023-04-09T21:41:44.056Z,3.88
2023-04-09T21:44:30.520Z,3.74
2023-04-09T21:47:17.041Z,3.81
2023-04-09T21:50:04.888Z,3.76
2023-04-09T21:52:51.059Z,3.34
2023-04-09T21:55:37.636Z,3.27
2023-04-09T21:58:24.238Z,3.51
2023-04-09T22:01:19.206Z,3.59
2023-04-09T22:04:15.035Z,3.27
2023-04-09T22:07:02.885Z,3.47
2023-04-09T22:09:49.274Z,3.27
2023-04-09T22:12:37.129Z,2.96
2023-04-09T22:15:23.795Z,3.39
2023-04-09T22:18:10.264Z,3.50
2023-04-09T22:20:56.756Z,3.49
2023-04-09T22:23:43.781Z,3.10
2023-04-09T22:26:31.565Z,3.31
2023-04-09T22:29:18.193Z,3.04
2023-04-09T22:32:04.345Z,3.24
2023-04-09T22:34:50.592Z,3.22
2023-04-09T22:37:37.505Z,3.06
2023-04-09T22:40:24.130Z,3.01
2023-04-09T22:43:10.342Z,3.00
2023-04-09T22:45:57.297Z,2.84
2023-04-09T22:48:45.212Z,2.89
2023-04-09T22:51:34.588Z,2.81
2023-04-09T22:54:22.069Z,2.88
2023-04-09T22:57:08.428Z,2.67
2023-04-09T22:59:54.677Z,2.60
2023-04-09T23:02:41.528Z,2.60
2023-04-09T23:05:28.105Z,2.72
2023-04-09T23:08:14.873Z,2.83
2023-04-09T23:11:01.525Z,2.78
2023-04-09T23:13:47.713Z,2.70
2023-04-09T23:16:34.171Z,2.70
2023-04-09T23:19:21.002Z,2.38
2023-04-09T23:22:07.336Z,2.62
2023-04-09T23:24:53.670Z,2.39
2023-04-09T23:27:40.315Z,2.61
2023-04-09T23:30:27.096Z,2.60
2023-04-09T23:33:13.763Z,2.21
2023-04-09T23:36:00.336Z,2.33
2023-04-09T23:38:47.356Z,2.39
2023-04-09T23:41:33.867Z,2.37
2023-04-09T23:44:20.461Z,2.29
2023-04-09T23:47:06.674Z,2.13
2023-04-09T23:49:53.002Z,2.34
2023-04-09T23:52:39.767Z,2.28
2023-04-09T23:55:27.163Z,2.02
2023-04-09T23:58:13.850Z,2.18
